Time;durP1;ratioP1;P1;durP2;ratioP2;P2;SDS_P1;SDS_P2;PMS_P1;PMS_P2;Temp;Humidity;BMP_temperature;BMP_pressure;BME280_temperature;BME280_humidity;BME280_pressure;Samples;Min_cycle;Max_cycle;Signal;HPM_P1;HPM_P2
2022/07/14 00:02:24;;;;;;;4.43;2.13;;;20.80;86.30;;;;;;5053240;28;20035;-91
2022/07/14 00:04:51;;;;;;;9.25;3.00;;;20.80;86.10;;;;;;5059197;28;20033;-90
2022/07/14 00:07:20;;;;;;;7.65;2.45;;;20.80;86.50;;;;;;5059061;28;20035;-89
2022/07/14 00:09:46;;;;;;;7.50;2.50;;;20.70;86.90;;;;;;5056349;28;20028;-90
2022/07/14 00:12:12;;;;;;;7.15;2.15;;;20.70;85.90;;;;;;5056500;28;20044;-91
2022/07/14 00:14:38;;;;;;;10.43;2.15;;;20.70;86.30;;;;;;5062003;28;20025;-90
2022/07/14 00:17:05;;;;;;;7.82;2.35;;;20.80;86.10;;;;;;5080475;28;20028;-92
2022/07/14 00:19:32;;;;;;;6.38;2.20;;;20.80;86.40;;;;;;5061597;28;20020;-94
2022/07/14 00:21:58;;;;;;;4.70;2.25;;;20.80;85.90;;;;;;5053860;28;20042;-89
2022/07/14 00:24:25;;;;;;;;;;;20.70;86.40;;;;;;5085226;28;20069;-85
2022/07/14 00:26:51;;;;;;;8.23;2.60;;;20.70;86.40;;;;;;5079430;28;19911;-88
2022/07/14 00:29:17;;;;;;;5.32;2.55;;;20.70;86.40;;;;;;5059373;28;20025;-86
2022/07/14 00:31:47;;;;;;;6.93;3.05;;;20.70;86.60;;;;;;5078149;28;20040;-86
2022/07/14 00:34:13;;;;;;;5.00;1.92;;;20.60;86.90;;;;;;5072704;28;20024;-87
2022/07/14 00:36:39;;;;;;;5.15;2.50;;;20.60;86.90;;;;;;5070989;28;20009;-86
2022/07/14 00:39:12;;;;;;;7.03;2.50;;;20.60;87.00;;;;;;5088891;28;20036;-88
2022/07/14 00:41:40;;;;;;;7.32;2.70;;;20.60;87.50;;;;;;5079262;28;20468;-91
2022/07/14 00:44:06;;;;;;;6.15;2.67;;;20.60;87.50;;;;;;5058723;28;20048;-90
2022/07/14 00:46:36;;;;;;;5.38;2.30;;;20.50;88.40;;;;;;5080685;28;20017;-93
2022/07/14 00:49:02;;;;;;;6.88;2.60;;;20.50;88.10;;;;;;5062107;28;20116;-93
2022/07/14 00:51:28;;;;;;;4.13;2.13;;;20.50;87.50;;;;;;5059821;28;20039;-91
2022/07/14 00:53:57;;;;;;;7.25;2.40;;;20.50;87.20;;;;;;5058159;28;20036;-91
2022/07/14 00:56:24;;;;;;;5.28;1.95;;;20.50;87.30;;;;;;5076519;28;20256;-89
2022/07/14 00:58:49;;;;;;;8.00;2.45;;;20.50;87.30;;;;;;5042435;28;20067;-90
2022/07/14 01:01:15;;;;;;;7.55;2.63;;;20.50;87.10;;;;;;5041793;28;20068;-93
2022/07/14 01:03:41;;;;;;;4.30;1.70;;;20.60;86.90;;;;;;5069900;23;20122;-53
2022/07/14 01:06:07;;;;;;;6.05;2.40;;;20.60;87.00;;;;;;5031672;28;20048;-54
2022/07/14 01:08:32;;;;;;;5.60;1.98;;;20.60;86.80;;;;;;5032298;28;20033;-53
2022/07/14 01:10:58;;;;;;;5.05;1.92;;;20.60;86.50;;;;;;5032040;28;20500;-54
2022/07/14 01:13:24;;;;;;;4.68;1.88;;;20.60;86.30;;;;;;5032275;28;20033;-54
2022/07/14 01:15:50;;;;;;;3.92;1.75;;;20.70;85.40;;;;;;5031963;28;20492;-54
2022/07/14 01:18:16;;;;;;;4.82;1.70;;;20.70;85.00;;;;;;5032246;28;20036;-53
2022/07/14 01:20:41;;;;;;;9.50;2.75;;;20.80;86.20;;;;;;5032147;28;20174;-52
2022/07/14 01:23:07;;;;;;;4.30;1.73;;;20.70;86.50;;;;;;5031397;28;20465;-54
2022/07/14 01:25:33;;;;;;;5.70;2.72;;;20.80;85.00;;;;;;5031413;28;20033;-54
2022/07/14 01:27:59;;;;;;;4.80;2.10;;;20.90;85.00;;;;;;5031950;28;20072;-54
2022/07/14 01:30:26;;;;;;;10.88;2.45;;;20.90;85.70;;;;;;5032005;28;20079;-54
2022/07/14 01:32:52;;;;;;;10.18;2.10;;;20.80;86.00;;;;;;5030266;28;20118;-54
2022/07/14 01:35:18;;;;;;;4.57;2.25;;;20.80;86.70;;;;;;5031664;28;20030;-54
2022/07/14 01:37:44;;;;;;;7.00;2.25;;;20.80;87.20;;;;;;5031760;28;20036;-54
2022/07/14 01:40:10;;;;;;;5.72;1.83;;;20.80;87.10;;;;;;5031790;28;20472;-54
2022/07/14 01:42:36;;;;;;;5.78;2.97;;;20.70;87.40;;;;;;5031575;28;20033;-54
2022/07/14 01:45:02;;;;;;;4.95;2.25;;;20.60;87.60;;;;;;5031784;28;20025;-54
2022/07/14 01:47:28;;;;;;;7.68;2.78;;;20.60;87.30;;;;;;5028004;28;20117;-53
2022/07/14 01:49:53;;;;;;;8.63;2.63;;;20.60;86.60;;;;;;5011837;28;20112;-53
2022/07/14 01:52:19;;;;;;;7.90;2.63;;;20.60;86.90;;;;;;5011649;28;20072;-54
2022/07/14 01:54:45;;;;;;;8.65;2.90;;;20.60;86.70;;;;;;5011684;28;20100;-54
2022/07/14 01:57:12;;;;;;;6.85;2.15;;;20.60;86.50;;;;;;5011573;28;20068;-54
2022/07/14 01:59:38;;;;;;;5.27;2.23;;;20.60;86.00;;;;;;5010133;28;20026;-54
2022/07/14 02:02:03;;;;;;;4.90;2.15;;;20.60;85.10;;;;;;5012104;28;20279;-54
2022/07/14 02:04:29;;;;;;;7.05;2.38;;;20.60;85.10;;;;;;5031121;28;20041;-54
2022/07/14 02:06:56;;;;;;;5.80;2.20;;;20.50;84.70;;;;;;5031121;28;20075;-54
2022/07/14 02:12:10;;;;;;;4.20;1.95;;;20.60;83.70;;;;;;5031058;28;20166;-54
2022/07/14 02:12:11;;;;;;;8.15;2.67;;;20.60;83.10;;;;;;5030791;28;20393;-54
2022/07/14 02:14:37;;;;;;;3.65;1.50;;;20.60;82.50;;;;;;5031095;28;20029;-54
2022/07/14 02:17:02;;;;;;;6.00;1.55;;;20.60;82.50;;;;;;5031024;28;20083;-53
2022/07/14 02:19:28;;;;;;;4.30;1.30;;;20.50;82.80;;;;;;5029464;28;20056;-54
2022/07/14 02:21:54;;;;;;;7.22;1.52;;;20.50;82.40;;;;;;5030695;28;20031;-53
2022/07/14 02:24:21;;;;;;;4.22;1.48;;;20.60;82.30;;;;;;5030762;28;20017;-53
2022/07/14 02:26:50;;;;;;;4.90;1.58;;;20.60;82.00;;;;;;5030788;28;20030;-53
2022/07/14 02:29:17;;;;;;;6.20;2.08;;;20.60;82.00;;;;;;5030749;28;20753;-53
2022/07/14 02:31:44;;;;;;;5.35;1.45;;;20.60;82.40;;;;;;5012705;28;20481;-54
2022/07/14 02:34:11;;;;;;;5.13;2.05;;;20.60;82.60;;;;;;5030878;28;20038;-54
2022/07/14 02:36:37;;;;;;;3.60;1.70;;;20.50;83.10;;;;;;5030246;28;20021;-54
2022/07/14 02:39:03;;;;;;;3.55;1.35;;;20.60;82.90;;;;;;5030384;28;20044;-54
2022/07/14 02:41:29;;;;;;;6.78;2.00;;;20.60;82.90;;;;;;5030465;28;20025;-54
2022/07/14 02:43:54;;;;;;;8.77;1.83;;;20.60;83.20;;;;;;5030371;28;20029;-54
2022/07/14 02:46:20;;;;;;;9.05;1.65;;;20.60;82.80;;;;;;5030424;28;20053;-54
2022/07/14 02:48:46;;;;;;;6.30;1.88;;;20.50;83.20;;;;;;5030491;28;20029;-54
2022/07/14 02:51:12;;;;;;;5.93;1.65;;;20.60;83.20;;;;;;5030129;28;20473;-54
2022/07/14 02:53:38;;;;;;;3.80;1.73;;;20.60;82.90;;;;;;5030072;28;20028;-54
2022/07/14 02:56:05;;;;;;;5.93;1.83;;;20.60;83.00;;;;;;5012353;28;20037;-53
2022/07/14 02:58:32;;;;;;;4.90;1.63;;;20.60;83.20;;;;;;5030412;28;20072;-54
2022/07/14 03:00:57;;;;;;;5.00;1.80;;;20.60;84.00;;;;;;5030179;28;20183;-54
2022/07/14 03:03:24;;;;;;;4.05;1.85;;;20.50;85.20;;;;;;5029750;28;20132;-53
2022/07/14 03:05:50;;;;;;;6.45;2.13;;;20.50;86.40;;;;;;5014331;28;20393;-54
2022/07/14 03:08:16;;;;;;;5.88;2.13;;;20.50;86.30;;;;;;5010223;28;20030;-54
2022/07/14 03:10:42;;;;;;;5.30;1.70;;;20.40;85.80;;;;;;5010506;28;20025;-54
2022/07/14 03:13:08;;;;;;;3.63;1.60;;;20.40;86.10;;;;;;5010178;28;20041;-55
2022/07/14 03:15:35;;;;;;;4.18;1.30;;;20.40;85.90;;;;;;5010404;28;20041;-54
2022/07/14 03:18:01;;;;;;;3.53;1.00;;;20.50;85.80;;;;;;5010275;28;20120;-55
2022/07/14 03:20:27;;;;;;;6.30;1.65;;;20.50;85.40;;;;;;5010229;28;20492;-53
2022/07/14 03:22:53;;;;;;;3.83;1.45;;;20.50;85.20;;;;;;5010125;28;20108;-55
2022/07/14 03:25:19;;;;;;;3.95;1.33;;;20.50;85.30;;;;;;4992407;28;20512;-55
2022/07/14 03:27:46;;;;;;;4.45;1.55;;;20.40;85.20;;;;;;5010254;28;20055;-54
2022/07/14 03:30:13;;;;;;;6.22;1.38;;;20.50;85.30;;;;;;5008729;28;20032;-54
2022/07/14 03:32:39;;;;;;;5.35;1.75;;;20.50;85.30;;;;;;5009867;28;20432;-54
2022/07/14 03:35:07;;;;;;;5.30;1.88;;;20.50;85.70;;;;;;5010112;28;20056;-54
2022/07/14 03:37:36;;;;;;;3.90;1.52;;;20.50;86.60;;;;;;5010109;28;20389;-53
2022/07/14 03:40:04;;;;;;;3.53;1.52;;;20.50;86.50;;;;;;5010212;28;20022;-54
2022/07/14 03:42:30;;;;;;;7.10;1.80;;;20.50;86.70;;;;;;5016198;28;20030;-54
2022/07/14 03:44:56;;;;;;;8.50;1.92;;;20.50;86.80;;;;;;5019521;28;20025;-54
2022/07/14 03:47:22;;;;;;;4.63;2.03;;;20.60;86.40;;;;;;5021245;28;20036;-55
2022/07/14 03:49:48;;;;;;;5.38;2.08;;;20.60;85.90;;;;;;5023583;28;20102;-54
2022/07/14 03:52:15;;;;;;;2.92;1.52;;;20.60;85.50;;;;;;5021274;28;20124;-55
2022/07/14 03:54:44;;;;;;;5.63;1.52;;;20.60;85.70;;;;;;5023485;28;20087;-54
2022/07/14 03:57:11;;;;;;;4.25;1.90;;;20.70;85.80;;;;;;5025049;28;20095;-55
2022/07/14 03:59:40;;;;;;;3.80;1.55;;;20.70;85.00;;;;;;5022038;28;20029;-54
2022/07/14 04:02:10;;;;;;;7.53;2.00;;;20.80;85.00;;;;;;5023207;28;20033;-54
2022/07/14 04:04:36;;;;;;;7.05;2.60;;;20.70;85.70;;;;;;5012855;28;20485;-53
2022/07/14 04:07:02;;;;;;;6.13;1.92;;;20.80;85.80;;;;;;5010472;28;20065;-55
2022/07/14 04:09:28;;;;;;;4.95;1.80;;;20.80;86.10;;;;;;5006020;28;20025;-54
2022/07/14 04:11:54;;;;;;;4.05;1.67;;;20.80;85.90;;;;;;5011566;28;20121;-54
2022/07/14 04:14:20;;;;;;;4.50;1.80;;;20.80;86.30;;;;;;5010751;28;20036;-55
2022/07/14 04:16:45;;;;;;;5.90;1.95;;;20.80;86.50;;;;;;5009809;28;20165;-54
2022/07/14 04:19:11;;;;;;;3.75;1.58;;;20.80;86.70;;;;;;5011970;28;20041;-55
2022/07/14 04:21:37;;;;;;;5.20;2.03;;;20.90;86.10;;;;;;5012080;28;20021;-54
2022/07/14 04:24:04;;;;;;;3.42;1.73;;;20.90;85.70;;;;;;4993148;28;20768;-55
2022/07/14 04:26:30;;;;;;;6.10;1.73;;;20.90;87.00;;;;;;4993487;28;20033;-54
2022/07/14 04:28:56;;;;;;;6.65;2.28;;;20.90;87.40;;;;;;4994080;28;20481;-54
2022/07/14 04:31:22;;;;;;;11.45;2.78;;;20.90;87.40;;;;;;5011790;28;20080;-52
2022/07/14 04:33:48;;;;;;;12.57;2.47;;;20.90;86.50;;;;;;4993994;28;20385;-54
2022/07/14 04:36:14;;;;;;;8.40;2.20;;;20.90;86.50;;;;;;5011772;28;20037;-53
2022/07/14 04:38:40;;;;;;;5.18;1.83;;;20.90;85.80;;;;;;5011790;28;20454;-53
2022/07/14 04:41:05;;;;;;;9.75;2.42;;;20.90;87.80;;;;;;5010639;28;20507;-54
2022/07/14 04:43:31;;;;;;;5.68;1.90;;;20.80;86.70;;;;;;5010171;28;20022;-54
2022/07/14 04:45:57;;;;;;;4.35;1.80;;;20.90;87.40;;;;;;5009907;28;20026;-54
2022/07/14 04:48:24;;;;;;;7.05;2.15;;;20.80;86.80;;;;;;5010080;28;20049;-53
2022/07/14 04:53:38;;;;;;;3.92;2.08;;;20.80;87.10;;;;;;5009415;28;20747;-55
2022/07/14 04:56:04;;;;;;;4.95;1.80;;;20.90;88.00;;;;;;5008481;28;20034;-54
2022/07/14 04:58:30;;;;;;;7.63;2.03;;;20.90;88.60;;;;;;5011630;28;20037;-54
2022/07/14 05:00:59;;;;;;;5.78;2.17;;;20.80;88.20;;;;;;5011708;28;20034;-54
2022/07/14 05:03:25;;;;;;;9.35;2.60;;;20.90;88.40;;;;;;5023119;28;20049;-54
2022/07/14 05:05:51;;;;;;;6.33;2.23;;;20.90;88.50;;;;;;5031133;28;20026;-53
2022/07/14 05:08:17;;;;;;;4.78;1.83;;;20.90;88.00;;;;;;5030923;28;20017;-53
2022/07/14 05:10:42;;;;;;;4.30;1.80;;;21.10;88.00;;;;;;5030940;28;20051;-54
2022/07/14 05:13:08;;;;;;;6.20;1.77;;;21.20;87.20;;;;;;5030703;28;20043;-54
2022/07/14 05:15:34;;;;;;;3.55;1.58;;;21.40;86.00;;;;;;5030731;28;20092;-54
2022/07/14 05:18:00;;;;;;;7.70;1.98;;;21.50;86.30;;;;;;5030671;28;20057;-55
2022/07/14 05:20:25;;;;;;;5.25;2.10;;;21.60;86.50;;;;;;5030658;28;20435;-54
2022/07/14 05:22:51;;;;;;;6.32;1.75;;;21.70;86.40;;;;;;5030628;28;20033;-55
2022/07/14 05:25:17;;;;;;;7.38;2.00;;;21.70;85.50;;;;;;5030485;28;20049;-54
2022/07/14 05:27:44;;;;;;;8.00;1.92;;;21.90;86.70;;;;;;5030557;28;20029;-55
2022/07/14 05:30:10;;;;;;;9.65;1.80;;;21.90;87.30;;;;;;5030621;28;20469;-54
2022/07/14 05:32:37;;;;;;;9.35;2.08;;;22.00;86.10;;;;;;5030355;28;20131;-54
2022/07/14 05:35:04;;;;;;;2.40;1.75;;;22.10;85.70;;;;;;5030502;28;20017;-54
2022/07/14 05:37:30;;;;;;;4.28;1.83;;;22.10;85.30;;;;;;5030386;28;20049;-54
2022/07/14 05:39:56;;;;;;;6.70;1.70;;;22.20;86.50;;;;;;5030494;28;20064;-54
2022/07/14 05:42:23;;;;;;;12.30;4.65;;;22.10;84.70;;;;;;5030150;28;20548;-54
2022/07/14 05:44:49;;;;;;;25.67;3.30;;;22.20;86.60;;;;;;5030364;28;20021;-54
2022/07/14 05:47:15;;;;;;;7.55;1.77;;;22.20;86.90;;;;;;5030423;28;20052;-53
2022/07/14 05:49:42;;;;;;;33.63;4.03;;;22.20;86.00;;;;;;5027642;28;20077;-54
2022/07/14 05:52:14;;;;;;;6.63;1.77;;;22.20;86.60;;;;;;5030007;28;20041;-54
2022/07/14 05:54:41;;;;;;;6.43;2.13;;;22.30;85.70;;;;;;5029795;28;20071;-54
2022/07/14 05:57:09;;;;;;;4.90;1.88;;;22.40;87.40;;;;;;5029933;28;20030;-54
2022/07/14 05:59:35;;;;;;;6.63;1.75;;;22.50;87.70;;;;;;5030078;28;20759;-53
2022/07/14 06:02:01;;;;;;;6.47;2.00;;;22.50;86.50;;;;;;5030460;28;20036;-53
2022/07/14 06:04:27;;;;;;;5.90;1.92;;;22.60;87.00;;;;;;5030231;28;20052;-53
2022/07/14 06:06:53;;;;;;;5.60;2.55;;;22.60;86.00;;;;;;5029869;28;20501;-53
2022/07/14 06:09:19;;;;;;;5.70;2.30;;;22.70;86.20;;;;;;5028445;28;20605;-53
2022/07/14 06:11:45;;;;;;;9.93;1.73;;;22.80;87.30;;;;;;5029557;28;20041;-54
2022/07/14 06:14:11;;;;;;;5.57;1.65;;;22.80;88.10;;;;;;5030277;28;20040;-53
2022/07/14 06:16:37;;;;;;;5.07;2.13;;;22.90;87.70;;;;;;5030056;28;20029;-53
2022/07/14 06:19:03;;;;;;;4.07;1.65;;;23.00;88.20;;;;;;5028635;28;20123;-54
2022/07/14 06:21:29;;;;;;;5.60;1.60;;;23.10;87.10;;;;;;5028148;28;20068;-54
2022/07/14 06:23:55;;;;;;;7.85;2.00;;;23.20;85.90;;;;;;5029290;28;20017;-54
2022/07/14 06:26:22;;;;;;;3.85;1.70;;;23.20;84.30;;;;;;5030171;28;20432;-53
2022/07/14 06:28:48;;;;;;;;;;;23.30;85.00;;;;;;5029306;28;20026;-54
2022/07/14 06:31:14;;;;;;;2.65;1.45;;;23.30;83.60;;;;;;5028500;28;20426;-53
2022/07/14 06:33:40;;;;;;;11.30;2.40;;;23.40;84.90;;;;;;5029006;28;20438;-54
2022/07/14 06:36:08;;;;;;;4.33;1.60;;;23.40;84.60;;;;;;5028892;28;20029;-54
2022/07/14 06:38:34;;;;;;;7.90;2.08;;;23.50;84.60;;;;;;5028532;28;20898;-54
2022/07/14 06:41:00;;;;;;;7.33;2.10;;;23.60;86.60;;;;;;5029253;28;20041;-54
2022/07/14 06:43:26;;;;;;;9.23;1.95;;;23.60;84.20;;;;;;5029553;28;20116;-53
2022/07/14 06:45:52;;;;;;;4.47;2.13;;;23.60;84.10;;;;;;5029618;28;20029;-54
2022/07/14 06:48:18;;;;;;;4.13;2.20;;;23.60;84.00;;;;;;5029467;28;20040;-54
2022/07/14 06:50:45;;;;;;;4.50;2.15;;;23.70;82.20;;;;;;5029265;28;20026;-54
2022/07/14 06:53:11;;;;;;;5.03;2.58;;;23.80;83.80;;;;;;5029330;28;20030;-54
2022/07/14 06:55:36;;;;;;;6.35;2.13;;;23.80;84.30;;;;;;5029238;28;20645;-54
2022/07/14 06:58:03;;;;;;;4.82;1.52;;;23.90;84.10;;;;;;5029268;28;20504;-53
2022/07/14 07:00:29;;;;;;;7.63;2.47;;;24.00;82.30;;;;;;5029402;28;20021;-54
2022/07/14 07:02:55;;;;;;;9.27;2.35;;;24.10;83.40;;;;;;5029212;28;20148;-54
2022/07/14 07:08:05;;;;;;;8.07;2.63;;;24.10;83.40;;;;;;5029577;28;20113;-54
2022/07/14 07:10:31;;;;;;;5.15;2.33;;;24.10;83.40;;;;;;5029228;28;20117;-55
2022/07/14 07:12:57;;;;;;;11.35;2.85;;;24.10;84.40;;;;;;5028939;28;20137;-53
2022/07/14 07:15:23;;;;;;;13.90;2.75;;;24.10;83.60;;;;;;5029042;28;20759;-54
2022/07/14 07:17:49;;;;;;;5.88;2.50;;;24.10;82.40;;;;;;5029363;28;20065;-54
2022/07/14 07:20:15;;;;;;;3.45;1.90;;;24.20;85.10;;;;;;5029750;28;20029;-54
2022/07/14 07:22:41;;;;;;;5.43;2.50;;;24.20;83.20;;;;;;5029003;28;20033;-54
2022/07/14 07:25:07;;;;;;;5.30;2.33;;;24.20;82.70;;;;;;5029784;28;20029;-54
2022/07/14 07:27:34;;;;;;;4.13;2.13;;;24.20;83.50;;;;;;5029874;28;20108;-54
2022/07/14 07:30:00;;;;;;;7.57;2.25;;;24.30;83.20;;;;;;5029846;28;20032;-54
2022/07/14 07:32:27;;;;;;;3.83;2.17;;;24.30;83.50;;;;;;5028293;28;20041;-54
2022/07/14 07:34:53;;;;;;;6.47;2.47;;;24.30;82.80;;;;;;5029188;28;20036;-54
2022/07/14 07:37:18;;;;;;;9.40;4.15;;;24.40;83.00;;;;;;5029742;28;20029;-54
2022/07/14 07:39:44;;;;;;;6.25;2.65;;;24.30;82.90;;;;;;5029741;28;20108;-55
2022/07/14 07:42:10;;;;;;;7.05;3.25;;;24.30;82.40;;;;;;5029643;28;20053;-54
2022/07/14 07:44:36;;;;;;;9.85;2.90;;;24.30;83.60;;;;;;5029699;28;20077;-54
2022/07/14 07:47:04;;;;;;;8.50;3.83;;;24.40;83.70;;;;;;5029779;28;20029;-54
2022/07/14 07:49:30;;;;;;;5.22;2.60;;;24.40;83.10;;;;;;5029658;28;20537;-54
2022/07/14 07:51:58;;;;;;;6.80;2.88;;;24.50;82.70;;;;;;5029324;28;20042;-54
2022/07/14 07:54:25;;;;;;;4.75;2.60;;;24.50;82.10;;;;;;5029660;28;20053;-54
2022/07/14 07:56:50;;;;;;;8.20;2.50;;;24.50;81.60;;;;;;5029465;28;20017;-54
2022/07/14 07:59:16;;;;;;;5.70;2.85;;;24.50;83.10;;;;;;5011951;28;20087;-54
2022/07/14 08:01:42;;;;;;;7.65;3.25;;;24.60;80.90;;;;;;5029445;28;20061;-54
2022/07/14 08:04:08;;;;;;;10.50;3.75;;;24.70;83.00;;;;;;5011453;28;20564;-54
2022/07/14 08:06:35;;;;;;;15.70;3.20;;;24.80;81.60;;;;;;5029472;28;20041;-54
2022/07/14 08:09:02;;;;;;;;;;;24.80;81.80;;;;;;5029943;28;20029;-54
2022/07/14 08:11:27;;;;;;;8.15;3.20;;;24.90;81.50;;;;;;5029190;28;19970;-54
2022/07/14 08:13:53;;;;;;;8.23;2.95;;;24.80;80.10;;;;;;5029529;28;20116;-54
2022/07/14 08:16:19;;;;;;;8.73;2.97;;;25.00;79.00;;;;;;5011647;28;20029;-53
2022/07/14 08:18:45;;;;;;;6.60;2.67;;;25.00;80.40;;;;;;5029629;28;20032;-54
2022/07/14 08:21:11;;;;;;;5.78;2.38;;;25.00;79.70;;;;;;5011460;28;20017;-54
2022/07/14 08:23:37;;;;;;;4.53;2.40;;;25.10;77.20;;;;;;5029455;28;20041;-54
2022/07/14 08:26:03;;;;;;;4.32;2.30;;;25.20;77.80;;;;;;5029391;28;20037;-54
2022/07/14 08:28:28;;;;;;;7.47;2.53;;;25.20;78.30;;;;;;5029475;28;20025;-54
2022/07/14 08:30:54;;;;;;;3.50;2.00;;;25.20;75.70;;;;;;5029178;28;20026;-54
2022/07/14 08:33:20;;;;;;;3.05;1.60;;;25.30;77.10;;;;;;5030254;28;20064;-54
2022/07/14 08:35:47;;;;;;;4.47;2.38;;;25.40;76.60;;;;;;5033137;28;20103;-54
2022/07/14 08:38:13;;;;;;;4.68;2.08;;;25.50;77.80;;;;;;5031521;28;20105;-54
2022/07/14 08:40:39;;;;;;;5.72;2.67;;;25.50;76.70;;;;;;5032684;28;20032;-54
2022/07/14 08:43:05;;;;;;;6.93;2.30;;;25.70;77.20;;;;;;5032655;28;20026;-54
2022/07/14 08:45:39;;;;;;;8.55;2.47;;;25.60;78.00;;;;;;5032779;28;20499;-54
2022/07/14 08:48:05;;;;;;;3.70;1.70;;;25.70;75.10;;;;;;5033052;28;20021;-54
2022/07/14 08:50:32;;;;;;;7.72;1.88;;;25.70;76.70;;;;;;5033243;28;20033;-54
2022/07/14 08:53:03;;;;;;;4.03;2.40;;;25.80;75.50;;;;;;5032640;28;20045;-54
2022/07/14 08:55:30;;;;;;;4.85;2.20;;;25.90;75.70;;;;;;5032556;28;20071;-54
2022/07/14 08:57:56;;;;;;;;;;;25.90;76.90;;;;;;5033069;28;20030;-54
2022/07/14 09:00:22;;;;;;;7.60;2.45;;;25.90;78.90;;;;;;5032321;28;20014;-54
2022/07/14 09:02:53;;;;;;;6.07;2.05;;;26.00;75.20;;;;;;5032205;28;20049;-54
2022/07/14 09:05:19;;;;;;;4.25;1.83;;;26.10;78.70;;;;;;5032327;28;20083;-54
2022/07/14 09:07:44;;;;;;;3.20;1.80;;;26.30;76.50;;;;;;5032327;28;20022;-54
2022/07/14 09:10:17;;;;;;;7.25;2.10;;;26.40;78.00;;;;;;5032221;28;20026;-54
2022/07/14 09:12:44;;;;;;;3.55;1.90;;;26.50;75.60;;;;;;5032145;28;20041;-54
2022/07/14 09:18:04;;;;;;;4.32;2.60;;;26.60;75.50;;;;;;5032435;28;19958;-54
2022/07/14 09:20:32;;;;;;;4.57;2.05;;;26.70;75.60;;;;;;5031947;28;20592;-54
2022/07/14 09:22:59;;;;;;;6.97;2.00;;;26.80;73.30;;;;;;5032034;28;20037;-54
2022/07/14 09:25:27;;;;;;;5.78;2.08;;;26.90;74.30;;;;;;5031669;28;20037;-55
2022/07/14 09:27:53;;;;;;;4.78;2.00;;;26.80;73.00;;;;;;5031631;28;20048;-54
2022/07/14 09:30:19;;;;;;;6.43;1.88;;;26.80;73.00;;;;;;5031995;28;20103;-55
2022/07/14 09:32:52;;;;;;;5.67;2.60;;;26.90;74.70;;;;;;5031875;28;20045;-55
2022/07/14 09:35:24;;;;;;;2.58;1.90;;;27.10;73.60;;;;;;5031752;28;20359;-54
2022/07/14 09:37:51;;;;;;;5.43;2.00;;;27.20;75.60;;;;;;5031743;28;20086;-54
2022/07/14 09:40:28;;;;;;;4.22;2.00;;;27.20;73.00;;;;;;5013874;28;20025;-54
2022/07/14 09:42:59;;;;;;;3.67;2.10;;;27.40;75.70;;;;;;5031663;28;20404;-55
2022/07/14 09:45:28;;;;;;;6.80;2.95;;;27.40;76.30;;;;;;5030775;28;20129;-54
2022/07/14 09:48:08;;;;;;;11.60;2.90;;;27.70;74.90;;;;;;5031608;28;20033;-54
2022/07/14 09:50:38;;;;;;;3.90;2.38;;;27.60;71.60;;;;;;5031556;28;20025;-55
2022/07/14 09:53:22;;;;;;;5.05;2.80;;;27.70;72.40;;;;;;5031472;28;20472;-54
2022/07/14 09:56:00;;;;;;;6.03;2.22;;;27.60;70.50;;;;;;5013691;28;20022;-54
2022/07/14 09:58:51;;;;;;;4.90;2.72;;;27.70;71.00;;;;;;5031290;28;20124;-54
2022/07/14 10:01:18;;;;;;;3.67;2.30;;;28.00;73.30;;;;;;5031257;28;20091;-54
2022/07/14 10:03:49;;;;;;;3.00;2.20;;;28.10;71.20;;;;;;5031070;28;20465;-54
2022/07/14 10:06:16;;;;;;;3.58;2.20;;;28.30;72.20;;;;;;5031233;28;20033;-54
2022/07/14 10:09:01;;;;;;;9.23;2.95;;;28.30;69.00;;;;;;5031239;28;20080;-54
2022/07/14 10:11:29;;;;;;;8.20;2.60;;;28.10;69.30;;;;;;5031161;28;20037;-55
2022/07/14 10:13:55;;;;;;;6.75;3.42;;;27.80;68.30;;;;;;5031004;28;20818;-54
2022/07/14 10:16:21;;;;;;;8.60;2.60;;;27.70;73.20;;;;;;5031235;28;20473;-54
2022/07/14 10:18:48;;;;;;;5.37;3.17;;;27.80;69.00;;;;;;5029609;28;20037;-54
2022/07/14 10:21:16;;;;;;;4.38;2.58;;;27.60;68.40;;;;;;5031019;28;20725;-54
2022/07/14 10:23:42;;;;;;;3.38;2.33;;;27.60;73.00;;;;;;5030943;28;20112;-54
2022/07/14 10:26:09;;;;;;;9.30;2.47;;;27.90;72.70;;;;;;5031050;28;20105;-54
2022/07/14 10:28:37;;;;;;;5.32;2.90;;;28.00;73.60;;;;;;5012944;28;20124;-55
2022/07/14 10:31:12;;;;;;;5.38;2.40;;;28.20;73.70;;;;;;5030809;28;20049;-55
2022/07/14 10:34:02;;;;;;;9.07;2.33;;;28.30;69.10;;;;;;5030935;28;20029;-54
2022/07/14 10:36:53;;;;;;;5.25;2.00;;;28.50;69.90;;;;;;5030988;28;20152;-54
2022/07/14 10:39:47;;;;;;;6.30;2.63;;;28.60;68.40;;;;;;5030873;28;20028;-54
2022/07/14 10:42:32;;;;;;;3.55;2.38;;;28.50;69.90;;;;;;5014008;28;20479;-54
2022/07/14 10:45:01;;;;;;;7.18;3.05;;;28.60;72.60;;;;;;5030742;28;20041;-54
2022/07/14 10:47:52;;;;;;;6.03;2.38;;;28.70;73.50;;;;;;5029867;28;20366;-54
2022/07/14 10:50:26;;;;;;;7.20;2.63;;;28.60;69.60;;;;;;5029508;28;20040;-53
2022/07/14 10:52:54;;;;;;;5.00;2.40;;;28.50;71.30;;;;;;5027671;28;20242;-54
2022/07/14 10:55:22;;;;;;;7.18;2.28;;;28.40;70.00;;;;;;5030432;28;20057;-54
2022/07/14 10:58:00;;;;;;;7.20;2.78;;;28.50;75.70;;;;;;5030382;28;20076;-54
2022/07/14 11:00:41;;;;;;;4.38;2.67;;;28.40;70.80;;;;;;5030086;28;20064;-54
2022/07/14 11:03:19;;;;;;;6.03;2.90;;;28.60;77.70;;;;;;5030047;28;20053;-54
2022/07/14 11:06:18;;;;;;;22.85;4.10;;;28.70;75.70;;;;;;5030276;28;20124;-54
2022/07/14 11:08:45;;;;;;;;;;;28.70;73.70;;;;;;5030984;28;20041;-54
2022/07/14 11:11:23;;;;;;;8.67;3.07;;;28.60;69.80;;;;;;5030197;28;19952;-54
2022/07/14 11:14:01;;;;;;;4.97;3.22;;;28.50;71.10;;;;;;5030172;28;20086;-53
2022/07/14 11:16:46;;;;;;;13.63;3.15;;;28.50;74.00;;;;;;5030090;28;20039;-53
2022/07/14 11:19:28;;;;;;;5.32;2.45;;;28.30;69.60;;;;;;5030059;28;20030;-54
2022/07/14 11:22:12;;;;;;;8.05;2.80;;;28.30;67.90;;;;;;5028325;28;20121;-54
2022/07/14 11:24:58;;;;;;;8.27;2.70;;;28.20;71.70;;;;;;5030044;28;20053;-54
2022/07/14 11:27:35;;;;;;;7.63;2.28;;;28.40;70.00;;;;;;5030091;28;20025;-54
2022/07/14 11:30:20;;;;;;;;;;;28.60;68.70;;;;;;5030274;28;20107;-54
2022/07/14 11:32:56;;;;;;;4.70;2.03;;;28.50;69.50;;;;;;5029933;28;20677;-54
2022/07/14 11:38:39;;;;;;;4.80;2.65;;;28.80;77.70;;;;;;5029850;28;20072;-54
2022/07/14 11:41:10;;;;;;;5.50;2.75;;;28.90;73.90;;;;;;5030065;28;20475;-54
2022/07/14 11:43:37;;;;;;;4.13;2.38;;;28.80;70.70;;;;;;5028304;28;20619;-54
2022/07/14 11:46:04;;;;;;;3.97;2.35;;;28.80;69.50;;;;;;5028032;28;20052;-54
2022/07/14 11:48:35;;;;;;;;;;;28.70;75.20;;;;;;5028025;28;20025;-54
2022/07/14 11:51:06;;;;;;;5.07;2.75;;;28.70;71.90;;;;;;5027872;28;19909;-54
2022/07/14 11:53:34;;;;;;;4.28;2.65;;;28.60;73.10;;;;;;5027955;28;20111;-54
2022/07/14 11:56:01;;;;;;;7.40;2.70;;;28.60;72.10;;;;;;5028953;28;20026;-54
2022/07/14 11:58:29;;;;;;;5.40;2.58;;;28.40;70.50;;;;;;5029158;28;20033;-54
2022/07/14 12:00:59;;;;;;;6.10;3.33;;;28.40;74.60;;;;;;5029313;28;20038;-54
2022/07/14 12:03:25;;;;;;;6.70;2.75;;;28.30;72.00;;;;;;5029415;28;20046;-54
2022/07/14 12:05:53;;;;;;;8.93;3.85;;;28.30;74.50;;;;;;5029672;28;20029;-54
2022/07/14 12:08:24;;;;;;;10.05;3.00;;;28.20;72.80;;;;;;5030681;28;20175;-54
2022/07/14 12:10:50;;;;;;;7.03;3.75;;;28.10;73.50;;;;;;5024059;28;20130;-53
2022/07/14 12:13:17;;;;;;;11.52;2.97;;;28.10;76.70;;;;;;5020691;28;20041;-54
2022/07/14 12:15:44;;;;;;;6.13;3.20;;;28.00;76.00;;;;;;5023473;28;20060;-53
2022/07/14 12:18:11;;;;;;;8.60;3.55;;;28.00;75.90;;;;;;5023469;28;20018;-54
2022/07/14 12:20:50;;;;;;;9.93;3.63;;;27.90;76.00;;;;;;5020386;28;20048;-54
2022/07/14 12:23:16;;;;;;;8.88;3.30;;;27.80;73.70;;;;;;5021928;28;20516;-54
2022/07/14 12:25:46;;;;;;;8.05;2.53;;;27.80;73.20;;;;;;5023645;28;20033;-54
2022/07/14 12:28:15;;;;;;;8.07;3.63;;;27.80;76.10;;;;;;5023717;28;20026;-54
2022/07/14 12:30:53;;;;;;;8.93;3.78;;;27.70;77.40;;;;;;5022035;28;20026;-54
2022/07/14 12:33:27;;;;;;;5.57;3.15;;;27.70;76.10;;;;;;5021835;28;20220;-54
2022/07/14 12:35:58;;;;;;;6.38;2.85;;;27.70;74.20;;;;;;5021837;28;20473;-53
2022/07/14 12:38:25;;;;;;;7.78;3.30;;;27.60;75.60;;;;;;5022340;28;20044;-54
2022/07/14 12:41:02;;;;;;;5.70;3.58;;;27.70;74.70;;;;;;5022548;28;20017;-53
2022/07/14 12:43:34;;;;;;;8.52;3.00;;;27.70;76.60;;;;;;5021413;28;20051;-55
2022/07/14 12:46:05;;;;;;;6.13;2.88;;;27.70;76.30;;;;;;5022708;28;20026;-54
2022/07/14 12:48:50;;;;;;;3.58;2.38;;;27.70;75.10;;;;;;5020893;28;20076;-54
2022/07/14 12:51:26;;;;;;;9.88;3.22;;;27.60;75.10;;;;;;5020872;28;20568;-54
2022/07/14 12:54:06;;;;;;;5.30;2.88;;;27.70;76.40;;;;;;5021237;28;20036;-55
2022/07/14 12:56:51;;;;;;;4.05;2.88;;;27.50;72.40;;;;;;5020981;28;20109;-55
2022/07/14 12:59:36;;;;;;;12.50;3.97;;;27.50;76.00;;;;;;5021674;28;20053;-55
2022/07/14 13:02:09;;;;;;;10.55;3.08;;;27.50;76.40;;;;;;5022210;28;20124;-54
2022/07/14 13:04:44;;;;;;;6.53;2.63;;;27.40;74.90;;;;;;5030807;28;20037;-54
2022/07/14 13:07:25;;;;;;;10.13;3.28;;;27.40;74.60;;;;;;5029174;28;20675;-55